createdAt,value
2019-04-16T00:01:00.923Z,33.78
2019-04-16T00:03:30.685Z,40.38
2019-04-16T00:06:18.344Z,39.25
2019-04-16T00:09:01.576Z,43.65
2019-04-16T00:11:49.266Z,44.03
2019-04-16T00:14:32.448Z,45.28
2019-04-16T00:17:02.169Z,42.90
2019-04-16T00:19:34.730Z,46.98
2019-04-16T00:22:12.418Z,46.13
2019-04-16T00:24:43.867Z,47.87
2019-04-16T00:27:13.586Z,52.43
2019-04-16T00:29:43.303Z,58.48
2019-04-16T00:32:14.595Z,56.83
2019-04-16T00:34:44.765Z,53.33
2019-04-16T00:37:20.269Z,50.17
2019-04-16T00:39:47.558Z,49.30
2019-04-16T00:42:17.204Z,54.15
2019-04-16T00:44:46.986Z,52.25
2019-04-16T00:47:16.757Z,56.33
2019-04-16T00:49:46.418Z,58.28
2019-04-16T00:52:16.147Z,58.87
2019-04-16T00:54:45.860Z,58.35
2019-04-16T00:57:17.955Z,60.73
2019-04-16T00:59:46.945Z,57.78
2019-04-16T01:02:16.706Z,61.35
2019-04-16T01:04:46.351Z,66.90
2019-04-16T01:07:16.102Z,61.37
2019-04-16T01:09:45.806Z,60.28
2019-04-16T01:12:15.527Z,59.65
2019-04-16T01:14:45.250Z,66.60
2019-04-16T01:17:14.902Z,58.68
2019-04-16T01:19:44.664Z,55.83
2019-04-16T01:22:16.030Z,55.55
2019-04-16T01:24:45.738Z,55.20
2019-04-16T01:27:15.959Z,56.92
2019-04-16T01:29:45.706Z,57.25
2019-04-16T01:32:36.087Z,58.10
2019-04-16T01:35:19.028Z,54.15
2019-04-16T01:38:06.310Z,56.65
2019-04-16T01:40:37.738Z,54.63
2019-04-16T01:43:07.447Z,52.23
2019-04-16T01:45:37.206Z,56.83
2019-04-16T01:48:08.223Z,52.43
2019-04-16T01:50:38.181Z,51.53
2019-04-16T01:53:07.896Z,53.23
2019-04-16T01:55:37.614Z,52.13
2019-04-16T01:58:07.333Z,52.40
2019-04-16T02:00:39.255Z,54.65
2019-04-16T02:03:08.518Z,51.73
2019-04-16T02:05:38.922Z,52.37
2019-04-16T02:08:08.645Z,50.70
2019-04-16T02:10:39.493Z,53.65
2019-04-16T02:13:09.215Z,55.60
2019-04-16T02:15:38.999Z,52.75
2019-04-16T02:18:08.723Z,54.27
2019-04-16T02:20:39.308Z,51.53
2019-04-16T02:23:09.379Z,52.90
2019-04-16T02:25:39.094Z,54.38
2019-04-16T02:28:08.854Z,51.03
2019-04-16T02:30:39.808Z,51.73
2019-04-16T02:33:09.647Z,55.80
2019-04-16T02:35:39.338Z,53.58
2019-04-16T02:38:12.233Z,51.45
2019-04-16T02:40:40.694Z,52.53
2019-04-16T02:43:10.459Z,53.17
2019-04-16T02:45:40.190Z,50.63
2019-04-16T02:48:14.716Z,53.73
2019-04-16T02:50:42.860Z,49.08
2019-04-16T02:53:26.407Z,50.70
2019-04-16T02:56:18.742Z,51.30
2019-04-16T02:58:52.474Z,49.70
2019-04-16T03:01:29.666Z,51.58
2019-04-16T03:04:03.738Z,52.08
2019-04-16T03:06:33.444Z,54.98
2019-04-16T03:09:05.364Z,52.17
2019-04-16T03:11:36.091Z,50.50
2019-04-16T03:14:05.860Z,49.73
2019-04-16T03:16:52.429Z,50.17
2019-04-16T03:19:23.791Z,53.17
2019-04-16T03:21:55.642Z,49.63
2019-04-16T03:24:24.973Z,52.48
2019-04-16T03:26:54.699Z,54.65
2019-04-16T03:29:24.423Z,50.08
2019-04-16T03:31:58.242Z,52.65
2019-04-16T03:34:25.613Z,49.25
2019-04-16T03:36:55.319Z,52.67
2019-04-16T03:39:25.067Z,56.18
2019-04-16T03:41:56.295Z,50.52
2019-04-16T03:44:26.104Z,56.13
2019-04-16T03:46:55.922Z,53.63
2019-04-16T03:49:27.648Z,57.62
2019-04-16T03:51:56.993Z,51.95
2019-04-16T03:54:26.718Z,49.17
2019-04-16T03:56:56.474Z,51.88
2019-04-16T03:59:26.261Z,53.78
2019-04-16T04:05:55.921Z,50.00
2019-04-16T04:08:25.941Z,49.73
2019-04-16T04:10:55.654Z,53.03
2019-04-16T04:13:26.380Z,52.43
2019-04-16T04:15:58.508Z,58.17
2019-04-16T04:18:28.070Z,58.38
2019-04-16T04:20:57.839Z,51.50
2019-04-16T04:23:28.629Z,53.35
2019-04-16T04:25:58.923Z,52.90
2019-04-16T04:28:28.627Z,50.65
2019-04-16T04:31:01.018Z,49.80
2019-04-16T04:33:42.659Z,52.53
2019-04-16T04:36:12.890Z,52.83
2019-04-16T04:38:42.600Z,51.68
2019-04-16T04:41:12.321Z,53.33
2019-04-16T04:43:42.051Z,49.65
2019-04-16T04:46:14.807Z,55.67
2019-04-16T04:48:43.140Z,51.08
2019-04-16T04:51:12.877Z,55.83
2019-04-16T04:53:42.599Z,56.37
2019-04-16T04:56:12.311Z,53.58
2019-04-16T04:58:42.030Z,56.90
2019-04-16T05:01:13.571Z,51.55
2019-04-16T05:03:48.250Z,53.73
2019-04-16T05:06:26.815Z,49.93
2019-04-16T05:08:53.706Z,53.33
2019-04-16T05:11:23.478Z,52.48
2019-04-16T05:13:53.471Z,60.30
2019-04-16T05:16:24.539Z,53.55
2019-04-16T05:18:54.282Z,53.42
2019-04-16T05:21:24.050Z,57.55
2019-04-16T05:23:56.841Z,59.35
2019-04-16T05:26:25.235Z,67.15
2019-04-16T05:28:56.524Z,59.67
2019-04-16T05:31:26.296Z,55.30
2019-04-16T05:34:00.464Z,52.40
2019-04-16T05:36:28.611Z,49.07
2019-04-16T05:38:58.320Z,51.50
2019-04-16T05:41:28.086Z,43.10
2019-04-16T05:43:58.505Z,48.17
2019-04-16T05:46:29.186Z,43.43
2019-04-16T05:48:58.907Z,42.75
2019-04-16T05:51:31.472Z,42.62
2019-04-16T05:54:04.222Z,44.73
2019-04-16T05:56:35.554Z,43.65
2019-04-16T05:59:05.279Z,50.98
2019-04-16T06:01:36.587Z,48.42
2019-04-16T06:04:06.310Z,49.75
2019-04-16T06:06:36.050Z,41.28
2019-04-16T06:09:11.862Z,37.93
2019-04-16T06:11:39.969Z,40.88
2019-04-16T06:14:18.955Z,38.00
2019-04-16T06:17:00.272Z,38.50
2019-04-16T06:19:31.559Z,35.35
2019-04-16T06:22:02.811Z,30.57
2019-04-16T06:24:52.561Z,30.40
2019-04-16T06:27:39.923Z,29.67
2019-04-16T06:30:11.302Z,26.00
2019-04-16T06:32:48.695Z,27.90
2019-04-16T06:35:43.202Z,25.68
2019-04-16T06:38:23.733Z,23.10
2019-04-16T06:40:54.997Z,23.10
2019-04-16T06:43:27.380Z,21.90
2019-04-16T06:46:05.467Z,21.57
2019-04-16T06:48:38.079Z,20.20
2019-04-16T06:51:27.602Z,19.92
2019-04-16T06:54:15.654Z,19.25
2019-04-16T06:56:46.905Z,17.42
2019-04-16T06:59:18.232Z,20.45
2019-04-16T07:01:58.494Z,16.90
2019-04-16T07:04:32.566Z,17.20
2019-04-16T07:07:22.541Z,16.90
2019-04-16T07:09:59.506Z,17.65
2019-04-16T07:12:29.395Z,15.88
2019-04-16T07:14:59.199Z,22.87
2019-04-16T07:17:32.894Z,19.20
2019-04-16T07:20:00.292Z,15.25
2019-04-16T07:22:29.999Z,12.47
2019-04-16T07:25:03.783Z,14.50
2019-04-16T07:27:37.815Z,17.40
2019-04-16T07:30:08.883Z,19.70
2019-04-16T07:32:46.490Z,12.63
2019-04-16T07:35:17.826Z,11.78
2019-04-16T07:37:49.098Z,15.08
2019-04-16T07:40:32.543Z,10.23
2019-04-16T07:43:16.121Z,11.75
2019-04-16T07:46:02.747Z,10.45
2019-04-16T07:48:40.043Z,15.30
2019-04-16T07:51:17.402Z,13.45
2019-04-16T07:53:54.507Z,13.53
2019-04-16T07:56:27.975Z,13.50
2019-04-16T07:59:00.614Z,8.60
2019-04-16T08:01:29.084Z,11.03
2019-04-16T08:04:01.340Z,11.03
2019-04-16T08:06:30.162Z,12.88
2019-04-16T08:08:59.875Z,12.28
2019-04-16T08:11:29.588Z,11.60
2019-04-16T08:13:59.308Z,10.03
2019-04-16T08:16:29.063Z,11.48
2019-04-16T08:18:58.940Z,9.70
2019-04-16T08:21:28.594Z,11.88
2019-04-16T08:24:09.272Z,11.75
2019-04-16T08:26:41.616Z,12.47
2019-04-16T08:29:11.478Z,11.85
2019-04-16T08:31:44.554Z,11.70
2019-04-16T08:34:14.147Z,11.95
2019-04-16T08:36:43.894Z,13.22
2019-04-16T08:39:15.103Z,9.25
2019-04-16T08:41:44.854Z,11.43
2019-04-16T08:44:14.575Z,10.65
2019-04-16T08:46:44.304Z,11.18
2019-04-16T08:49:15.273Z,13.28
2019-04-16T08:51:45.035Z,11.88
2019-04-16T08:54:17.702Z,11.00
2019-04-16T08:56:46.072Z,9.60
2019-04-16T08:59:16.083Z,10.70
2019-04-16T09:01:45.795Z,12.80
2019-04-16T09:04:15.518Z,12.58
2019-04-16T09:06:46.311Z,12.30
2019-04-16T09:09:18.546Z,11.65
2019-04-16T09:11:49.489Z,9.28
2019-04-16T09:14:20.928Z,10.30
2019-04-16T09:16:52.351Z,9.15
2019-04-16T09:19:23.227Z,11.63
2019-04-16T09:21:52.946Z,11.28
2019-04-16T09:24:27.991Z,17.42
2019-04-16T09:26:59.290Z,11.20
2019-04-16T09:29:30.617Z,11.10
2019-04-16T09:32:13.833Z,11.03
2019-04-16T09:35:09.661Z,10.93
2019-04-16T09:37:53.892Z,9.37
2019-04-16T09:40:41.347Z,11.85
2019-04-16T09:43:19.633Z,12.30
2019-04-16T09:45:49.377Z,11.57
2019-04-16T09:48:19.098Z,11.83
2019-04-16T09:50:48.866Z,10.18
2019-04-16T09:53:32.241Z,10.18
2019-04-16T09:55:50.607Z,11.60
2019-04-16T09:58:22.697Z,16.90
2019-04-16T10:01:07.556Z,25.40
2019-04-16T10:03:44.864Z,10.95
2019-04-16T10:06:14.595Z,10.98
2019-04-16T10:08:45.684Z,9.95
2019-04-16T10:11:18.410Z,11.35
2019-04-16T10:13:46.864Z,9.93
2019-04-16T10:16:17.771Z,12.18
2019-04-16T10:18:47.541Z,9.88
2019-04-16T10:21:20.093Z,10.98
2019-04-16T10:23:59.310Z,9.83
2019-04-16T10:26:29.012Z,9.70
2019-04-16T10:29:00.348Z,8.40
2019-04-16T10:31:30.310Z,8.20
2019-04-16T10:34:00.030Z,11.33
2019-04-16T10:36:29.760Z,10.82
2019-04-16T10:39:07.073Z,8.88
2019-04-16T10:41:38.460Z,9.45
2019-04-16T10:44:21.757Z,12.23
2019-04-16T10:47:02.063Z,10.10
2019-04-16T10:49:33.389Z,9.57
2019-04-16T10:52:04.693Z,9.03
2019-04-16T10:54:48.056Z,16.27
2019-04-16T10:57:38.258Z,9.75
2019-04-16T11:00:26.188Z,9.15
2019-04-16T11:03:12.618Z,9.03
2019-04-16T11:05:56.800Z,9.05
2019-04-16T11:08:24.289Z,19.70
2019-04-16T11:10:54.058Z,9.83
2019-04-16T11:13:25.746Z,7.63
2019-04-16T11:15:58.065Z,9.18
2019-04-16T11:18:27.773Z,12.60
2019-04-16T11:20:57.551Z,8.98
2019-04-16T11:23:27.195Z,9.43
2019-04-16T11:25:56.952Z,13.00
2019-04-16T11:28:26.660Z,9.38
2019-04-16T11:31:00.977Z,7.53
2019-04-16T11:33:30.676Z,9.43
2019-04-16T11:36:00.435Z,9.03
2019-04-16T11:38:30.110Z,7.97
2019-04-16T11:40:59.818Z,6.87
2019-04-16T11:43:29.637Z,10.93
2019-04-16T11:45:59.310Z,10.43
2019-04-16T11:48:29.062Z,11.73
2019-04-16T11:50:58.771Z,11.28
2019-04-16T11:53:28.493Z,8.60
2019-04-16T11:55:58.167Z,7.45
2019-04-16T11:58:38.526Z,11.15
2019-04-16T12:01:12.514Z,7.40
2019-04-16T12:04:00.147Z,8.20
2019-04-16T12:06:34.262Z,9.15
2019-04-16T12:09:19.064Z,9.40
2019-04-16T12:11:50.354Z,11.77
2019-04-16T12:14:32.213Z,8.40
2019-04-16T12:17:00.342Z,8.10
2019-04-16T12:19:31.660Z,8.15
2019-04-16T12:22:05.694Z,7.08
2019-04-16T12:24:46.214Z,6.22
2019-04-16T12:27:17.528Z,9.28
2019-04-16T12:29:48.803Z,7.47
2019-04-16T12:32:27.044Z,10.20
2019-04-16T12:34:58.554Z,8.35
2019-04-16T12:37:37.367Z,8.33
2019-04-16T12:40:10.961Z,9.93
2019-04-16T12:42:47.767Z,8.08
2019-04-16T12:45:25.347Z,10.43
2019-04-16T12:48:02.679Z,11.93
2019-04-16T12:50:36.820Z,10.55
2019-04-16T12:53:09.122Z,7.62
2019-04-16T12:55:40.351Z,7.47
2019-04-16T12:58:20.543Z,8.60
2019-04-16T13:01:03.309Z,5.80
2019-04-16T13:03:33.986Z,8.08
2019-04-16T13:06:26.191Z,10.82
2019-04-16T13:09:11.729Z,8.95
2019-04-16T13:11:46.002Z,7.40
2019-04-16T13:14:33.543Z,11.45
2019-04-16T13:17:04.835Z,11.27
2019-04-16T13:19:37.278Z,11.05
2019-04-16T13:22:08.667Z,10.03
2019-04-16T13:24:56.270Z,7.83
2019-04-16T13:27:33.523Z,10.57
2019-04-16T13:30:04.263Z,8.50
2019-04-16T13:32:33.983Z,8.73
2019-04-16T13:35:04.575Z,7.80
2019-04-16T13:37:37.887Z,7.67
2019-04-16T13:40:11.755Z,10.25
2019-04-16T13:42:41.475Z,10.58
2019-04-16T13:45:25.637Z,10.43
2019-04-16T13:47:55.722Z,10.45
2019-04-16T13:50:26.567Z,8.58
2019-04-16T13:53:03.521Z,6.90
2019-04-16T13:55:38.318Z,8.18
2019-04-16T13:58:09.808Z,9.93
2019-04-16T14:00:50.314Z,10.80
2019-04-16T14:03:23.844Z,12.05
2019-04-16T14:05:53.706Z,13.20
2019-04-16T14:08:23.423Z,17.60
2019-04-16T14:10:53.194Z,11.00
2019-04-16T14:13:22.906Z,15.43
2019-04-16T14:15:52.623Z,8.33
2019-04-16T14:18:22.615Z,8.15
2019-04-16T14:20:52.372Z,13.50
2019-04-16T14:23:22.091Z,9.55
2019-04-16T14:25:52.855Z,9.18
2019-04-16T14:28:22.584Z,12.30
2019-04-16T14:30:52.299Z,9.60
2019-04-16T14:33:42.008Z,9.18
2019-04-16T14:36:13.591Z,10.32
2019-04-16T14:38:50.550Z,10.55
2019-04-16T14:41:20.319Z,10.08
2019-04-16T14:44:01.406Z,7.58
2019-04-16T14:46:29.369Z,8.55
2019-04-16T14:48:59.891Z,15.38
2019-04-16T14:51:36.364Z,8.63
2019-04-16T14:54:13.889Z,10.03
2019-04-16T14:56:48.210Z,13.03
2019-04-16T14:59:30.483Z,11.68
2019-04-16T15:01:53.115Z,9.20
2019-04-16T15:04:27.367Z,9.95
2019-04-16T15:07:04.541Z,10.30
2019-04-16T15:09:35.850Z,8.93
2019-04-16T15:12:22.406Z,11.57
2019-04-16T15:14:57.621Z,10.18
2019-04-16T15:17:34.910Z,8.45
2019-04-16T15:20:07.094Z,11.08
2019-04-16T15:22:38.420Z,11.25
2019-04-16T15:25:22.086Z,15.70
2019-04-16T15:27:53.407Z,7.80
2019-04-16T15:30:36.780Z,8.20
2019-04-16T15:33:08.203Z,8.83
2019-04-16T15:35:39.858Z,12.35
2019-04-16T15:38:17.122Z,9.35
2019-04-16T15:40:49.843Z,8.13
2019-04-16T15:43:36.470Z,8.93
2019-04-16T15:46:24.809Z,8.45
2019-04-16T15:48:58.802Z,8.03
2019-04-16T15:51:44.333Z,10.08
2019-04-16T15:54:20.823Z,9.45
2019-04-16T15:56:52.115Z,17.98
2019-04-16T15:59:39.851Z,11.30
2019-04-16T16:02:17.218Z,12.18
2019-04-16T16:04:54.319Z,11.37
2019-04-16T16:07:25.093Z,15.68
2019-04-16T16:09:59.766Z,10.30
2019-04-16T16:12:30.916Z,11.37
2019-04-16T16:15:00.881Z,9.00
2019-04-16T16:17:32.010Z,10.38
2019-04-16T16:20:01.693Z,21.00
2019-04-16T16:22:41.899Z,8.90
2019-04-16T16:25:11.911Z,9.98
2019-04-16T16:27:47.017Z,9.65
2019-04-16T16:30:15.664Z,10.50
2019-04-16T16:32:45.513Z,9.45
2019-04-16T16:35:17.755Z,9.73
2019-04-16T16:37:46.612Z,17.45
2019-04-16T16:40:16.488Z,13.00
2019-04-16T16:42:46.294Z,12.00
2019-04-16T16:45:16.079Z,12.37
2019-04-16T16:47:45.790Z,14.87
2019-04-16T16:50:15.522Z,12.70
2019-04-16T16:52:56.594Z,15.57
2019-04-16T16:55:27.906Z,20.10
2019-04-16T16:58:04.939Z,21.70
2019-04-16T17:00:52.687Z,16.50
2019-04-16T17:03:40.470Z,11.83
2019-04-16T17:06:11.814Z,12.45
2019-04-16T17:08:41.520Z,12.70
2019-04-16T17:11:16.636Z,14.35
2019-04-16T17:13:42.598Z,15.13
2019-04-16T17:16:14.409Z,16.75
2019-04-16T17:18:45.470Z,13.18
2019-04-16T17:21:15.033Z,14.87
2019-04-16T17:23:44.740Z,10.60
2019-04-16T17:26:16.055Z,13.50
2019-04-16T17:28:46.259Z,15.08
2019-04-16T17:31:16.110Z,14.83
2019-04-16T17:33:45.822Z,15.60
2019-04-16T17:36:15.545Z,14.87
2019-04-16T17:38:45.535Z,14.03
2019-04-16T17:41:31.909Z,12.43
2019-04-16T17:44:06.139Z,15.90
2019-04-16T17:46:37.454Z,16.00
2019-04-16T17:49:08.667Z,11.85
2019-04-16T17:51:40.002Z,11.60
2019-04-16T17:54:14.251Z,13.30
2019-04-16T17:56:57.635Z,11.22
2019-04-16T17:59:29.569Z,11.00
2019-04-16T18:02:17.733Z,15.03
2019-04-16T18:05:01.140Z,13.22
2019-04-16T18:07:38.453Z,11.73
2019-04-16T18:10:19.088Z,14.50
2019-04-16T18:13:07.261Z,14.03
2019-04-16T18:15:56.632Z,16.50
2019-04-16T18:18:30.907Z,11.95
2019-04-16T18:21:08.543Z,12.95
2019-04-16T18:23:55.022Z,12.13
2019-04-16T18:26:32.345Z,14.45
2019-04-16T18:29:06.399Z,14.95
2019-04-16T18:31:46.734Z,15.15
2019-04-16T18:34:24.077Z,15.70
2019-04-16T18:37:01.081Z,19.55
2019-04-16T18:39:38.294Z,11.88
2019-04-16T18:42:15.741Z,16.00
2019-04-16T18:44:56.328Z,15.38
2019-04-16T18:48:01.601Z,16.10
2019-04-16T18:50:23.585Z,17.25
2019-04-16T18:52:51.894Z,14.83
2019-04-16T18:55:22.441Z,22.42
2019-04-16T18:57:52.387Z,18.02
2019-04-16T19:00:40.126Z,24.65
2019-04-16T19:03:17.005Z,16.85
2019-04-16T19:05:55.422Z,24.52
2019-04-16T19:08:40.523Z,22.93
2019-04-16T19:10:56.530Z,20.02
2019-04-16T19:13:26.263Z,22.50
2019-04-16T19:15:56.240Z,23.32
2019-04-16T19:18:25.955Z,26.12
2019-04-16T19:20:55.692Z,42.23
2019-04-16T19:23:25.434Z,36.53
2019-04-16T19:25:56.705Z,30.43
2019-04-16T19:28:26.491Z,16.45
2019-04-16T19:30:56.519Z,18.80
2019-04-16T19:33:26.657Z,15.85
2019-04-16T19:35:56.407Z,14.33
2019-04-16T19:38:26.127Z,16.67
2019-04-16T19:40:56.001Z,20.17
2019-04-16T19:43:28.229Z,33.30
2019-04-16T19:45:57.319Z,20.12
2019-04-16T19:48:35.514Z,17.62
2019-04-16T19:50:59.073Z,15.63
2019-04-16T19:53:29.128Z,16.43
2019-04-16T19:55:58.890Z,19.27
2019-04-16T19:58:28.888Z,16.00
2019-04-16T20:00:59.169Z,20.75
2019-04-16T20:03:30.523Z,19.23
2019-04-16T20:06:00.615Z,19.77
2019-04-16T20:08:34.439Z,29.12
2019-04-16T20:11:02.258Z,22.35
2019-04-16T20:13:31.975Z,18.12
2019-04-16T20:16:01.699Z,23.53
2019-04-16T20:18:31.349Z,18.47
2019-04-16T20:21:02.197Z,15.33
2019-04-16T20:23:32.038Z,19.55
2019-04-16T20:26:01.747Z,19.90
2019-04-16T20:28:32.609Z,17.92
2019-04-16T20:31:04.290Z,15.72
2019-04-16T20:33:34.691Z,19.75
2019-04-16T20:36:05.308Z,20.08
2019-04-16T20:38:35.079Z,19.80
2019-04-16T20:41:04.794Z,20.02
2019-04-16T20:43:34.522Z,21.57
2019-04-16T20:46:04.208Z,20.12
2019-04-16T20:48:33.914Z,21.12
2019-04-16T20:51:03.912Z,20.77
2019-04-16T20:53:33.782Z,21.93
2019-04-16T20:56:04.476Z,19.77
2019-04-16T20:58:34.191Z,20.17
2019-04-16T21:01:05.485Z,22.02
2019-04-16T21:03:35.354Z,21.50
2019-04-16T21:06:07.831Z,19.82
2019-04-16T21:08:36.441Z,21.23
2019-04-16T21:11:09.127Z,22.02
2019-04-16T21:13:37.556Z,21.15
2019-04-16T21:16:07.330Z,22.22
2019-04-16T21:18:37.030Z,23.25
2019-04-16T21:21:06.760Z,24.75
2019-04-16T21:23:36.471Z,21.62
2019-04-16T21:26:06.205Z,19.87
2019-04-16T21:28:37.500Z,22.95
2019-04-16T21:31:09.158Z,24.07
2019-04-16T21:33:40.484Z,20.23
2019-04-16T21:36:11.770Z,18.50
2019-04-16T21:38:52.050Z,19.25
2019-04-16T21:41:21.699Z,21.07
2019-04-16T21:43:51.431Z,18.52
2019-04-16T21:46:21.231Z,22.48
2019-04-16T21:48:50.879Z,17.20
2019-04-16T21:51:23.974Z,22.87
2019-04-16T21:53:51.967Z,22.85
2019-04-16T21:56:22.606Z,15.68
2019-04-16T21:58:52.315Z,17.48
2019-04-16T22:01:26.378Z,20.92
2019-04-16T22:03:57.670Z,18.55
2019-04-16T22:06:27.430Z,15.33
2019-04-16T22:08:59.077Z,16.52
2019-04-16T22:11:28.527Z,15.88
2019-04-16T22:13:58.235Z,18.43
2019-04-16T22:16:29.873Z,17.37
2019-04-16T22:18:59.368Z,14.58
2019-04-16T22:21:29.124Z,17.75
2019-04-16T22:23:58.850Z,17.15
2019-04-16T22:26:28.573Z,13.13
2019-04-16T22:28:58.287Z,20.77
2019-04-16T22:37:21.110Z,14.83
2019-04-16T22:39:55.166Z,17.45
2019-04-16T22:42:35.142Z,16.35
2019-04-16T22:45:17.223Z,13.45
2019-04-16T22:47:48.626Z,12.33
2019-04-16T22:50:18.357Z,15.00
2019-04-16T22:52:48.918Z,50.03
2019-04-16T22:55:18.649Z,43.95
2019-04-16T22:57:49.939Z,23.02
2019-04-16T23:00:33.270Z,19.23
2019-04-16T23:03:03.072Z,18.05
2019-04-16T23:05:32.806Z,13.85
2019-04-16T23:08:02.818Z,18.62
2019-04-16T23:10:32.756Z,24.85
2019-04-16T23:13:02.987Z,16.35
2019-04-16T23:15:34.014Z,38.50
2019-04-16T23:18:04.084Z,19.37
2019-04-16T23:20:36.986Z,15.40
2019-04-16T23:23:05.193Z,13.70
2019-04-16T23:25:34.961Z,17.15
2019-04-16T23:28:09.792Z,17.25
2019-04-16T23:30:36.443Z,14.33
2019-04-16T23:33:07.231Z,13.70
2019-04-16T23:35:43.349Z,14.00
2019-04-16T23:38:09.169Z,14.25
2019-04-16T23:40:40.883Z,12.58
2019-04-16T23:43:27.074Z,17.42
2019-04-16T23:46:10.438Z,13.10
2019-04-16T23:48:44.792Z,14.60
2019-04-16T23:51:17.174Z,15.85
2019-04-16T23:59:40.793Z,14.40
